createdAt,value
2023-05-21T00:04:19.976Z,1.27
2023-05-21T00:09:41.925Z,1.25
2023-05-21T00:15:04.689Z,1.23
2023-05-21T00:20:27.309Z,1.35
2023-05-21T00:25:50.686Z,1.13
2023-05-21T00:31:12.583Z,1.20
2023-05-21T00:36:34.946Z,1.17
2023-05-21T00:41:57.295Z,1.10
2023-05-21T00:47:19.144Z,1.20
2023-05-21T00:52:45.761Z,1.30
2023-05-21T00:58:08.513Z,1.33
2023-05-21T01:03:31.080Z,1.20
2023-05-21T01:08:53.015Z,1.13
2023-05-21T01:14:16.361Z,1.27
2023-05-21T01:19:38.332Z,1.13
2023-05-21T01:25:02.994Z,1.08
2023-05-21T01:30:25.498Z,1.10
2023-05-21T01:36:14.299Z,1.30
2023-05-21T01:41:41.949Z,1.67
2023-05-21T01:47:05.416Z,1.48
2023-05-21T01:52:27.416Z,1.33
2023-05-21T01:57:49.238Z,1.20
2023-05-21T02:03:12.151Z,1.40
2023-05-21T02:08:34.001Z,1.67
2023-05-21T02:13:57.670Z,1.10
2023-05-21T02:19:19.589Z,1.40
2023-05-21T02:24:41.594Z,1.40
2023-05-21T02:30:05.768Z,1.42
2023-05-21T02:35:27.752Z,1.30
2023-05-21T02:40:53.684Z,1.20
2023-05-21T02:46:15.632Z,1.45
2023-05-21T02:51:37.484Z,1.48
2023-05-21T02:56:59.396Z,1.33
2023-05-21T03:02:21.359Z,1.30
2023-05-21T03:07:43.852Z,1.40
2023-05-21T03:13:09.535Z,1.30
2023-05-21T03:18:31.708Z,1.67
2023-05-21T03:23:58.859Z,1.67
2023-05-21T03:29:21.025Z,1.42
2023-05-21T03:34:42.960Z,1.70
2023-05-21T03:40:06.242Z,1.60
2023-05-21T03:45:28.133Z,1.58
2023-05-21T03:50:50.458Z,1.50
2023-05-21T03:56:12.774Z,1.67
2023-05-21T04:01:35.196Z,1.50
2023-05-21T04:06:57.005Z,1.60
2023-05-21T04:12:20.549Z,1.70
2023-05-21T04:17:42.430Z,1.73
2023-05-21T04:23:04.306Z,1.60
2023-05-21T04:28:29.044Z,1.50
2023-05-21T04:33:50.999Z,1.40
2023-05-21T04:39:12.849Z,1.52
2023-05-21T04:44:34.692Z,1.65
2023-05-21T04:49:56.656Z,1.92
2023-05-21T04:55:19.349Z,1.80
2023-05-21T05:00:42.592Z,1.48
2023-05-21T05:06:04.905Z,2.00
2023-05-21T05:11:27.026Z,1.42
2023-05-21T05:16:48.930Z,1.48
2023-05-21T05:22:13.355Z,1.73
2023-05-21T05:27:37.708Z,1.55
2023-05-21T05:33:00.414Z,1.87
2023-05-21T05:38:22.423Z,1.70
2023-05-21T05:43:44.336Z,1.83
2023-05-21T05:49:06.196Z,1.77
2023-05-21T05:54:28.266Z,1.70
2023-05-21T05:59:50.201Z,1.95
2023-05-21T06:05:12.085Z,2.17
2023-05-21T06:10:33.904Z,1.73
2023-05-21T06:15:55.872Z,1.77
2023-05-21T06:21:17.672Z,2.10
2023-05-21T06:26:39.698Z,1.95
2023-05-21T06:32:01.975Z,2.40
2023-05-21T06:37:25.916Z,2.80
2023-05-21T06:42:48.558Z,2.47
2023-05-21T06:48:10.446Z,2.38
2023-05-21T06:53:32.310Z,2.90
2023-05-21T06:58:54.807Z,2.45
2023-05-21T07:04:16.640Z,3.10
2023-05-21T07:09:38.532Z,2.60
2023-05-21T07:15:00.419Z,2.80
2023-05-21T07:20:22.341Z,2.58
2023-05-21T07:25:44.208Z,3.33
2023-05-21T07:31:06.329Z,2.70
2023-05-21T07:36:28.223Z,3.10
2023-05-21T07:41:50.022Z,3.22
2023-05-21T07:47:11.918Z,2.60
2023-05-21T07:52:33.965Z,2.40
2023-05-21T07:57:57.097Z,2.72
2023-05-21T08:03:19.455Z,2.65
2023-05-21T08:08:41.436Z,3.10
2023-05-21T08:14:03.304Z,2.67
2023-05-21T08:19:25.176Z,3.25
2023-05-21T08:24:47.037Z,2.53
2023-05-21T08:30:11.792Z,3.53
2023-05-21T08:35:33.682Z,3.10
2023-05-21T08:40:56.191Z,2.88
2023-05-21T08:46:21.968Z,3.30
2023-05-21T08:51:47.644Z,2.90
2023-05-21T08:57:10.329Z,2.70
2023-05-21T09:02:35.493Z,2.65
2023-05-21T09:08:06.881Z,3.10
2023-05-21T09:13:32.456Z,2.97
2023-05-21T09:24:16.357Z,3.28
2023-05-21T09:29:38.160Z,3.03
2023-05-21T09:35:08.158Z,3.60
2023-05-21T09:40:30.004Z,3.70
2023-05-21T09:45:54.180Z,4.05
2023-05-21T09:51:17.699Z,3.80
2023-05-21T09:56:40.108Z,4.05
2023-05-21T10:02:02.706Z,3.80
2023-05-21T10:07:27.374Z,4.32
2023-05-21T10:12:55.231Z,4.13
2023-05-21T10:18:19.403Z,5.03
2023-05-21T10:23:43.216Z,4.70
2023-05-21T10:29:05.200Z,4.60
2023-05-21T10:34:28.583Z,4.72
2023-05-21T10:39:53.414Z,5.10
2023-05-21T10:45:34.787Z,5.10
2023-05-21T10:51:08.781Z,4.97
2023-05-21T10:56:46.928Z,4.20
2023-05-21T11:02:11.707Z,4.75
2023-05-21T11:07:58.394Z,4.47
2023-05-21T11:13:21.998Z,4.82
2023-05-21T11:18:46.587Z,4.13
2023-05-21T11:24:11.042Z,5.00
2023-05-21T11:29:55.947Z,4.60
2023-05-21T11:35:17.776Z,4.88
2023-05-21T11:40:54.044Z,5.07
2023-05-21T11:46:16.048Z,5.53
2023-05-21T11:51:38.023Z,4.80
2023-05-21T11:57:03.852Z,5.38
2023-05-21T12:02:29.789Z,5.10
2023-05-21T12:07:52.170Z,5.53
2023-05-21T12:13:15.361Z,5.30
2023-05-21T12:18:37.503Z,5.78
2023-05-21T12:23:59.899Z,5.53
2023-05-21T12:29:23.852Z,5.68
2023-05-21T12:34:46.362Z,5.82
2023-05-21T12:40:09.151Z,6.35
2023-05-21T12:45:32.674Z,5.78
2023-05-21T12:50:54.515Z,5.75
2023-05-21T12:56:16.638Z,5.90
2023-05-21T13:01:38.513Z,6.00
2023-05-21T13:07:01.057Z,6.20
2023-05-21T13:12:26.280Z,6.15
2023-05-21T13:17:49.877Z,6.63
2023-05-21T13:23:12.532Z,6.78
2023-05-21T13:28:34.383Z,6.00
2023-05-21T13:33:56.254Z,6.40
2023-05-21T13:39:18.188Z,7.30
2023-05-21T13:44:40.041Z,6.43
2023-05-21T13:50:02.016Z,7.15
2023-05-21T13:55:23.935Z,6.93
2023-05-21T14:00:45.811Z,7.25
2023-05-21T14:06:08.609Z,7.15
2023-05-21T14:11:31.788Z,6.85
2023-05-21T14:16:53.776Z,7.55
2023-05-21T14:22:15.798Z,7.78
2023-05-21T14:27:38.437Z,8.25
2023-05-21T14:33:00.546Z,7.65
2023-05-21T14:38:22.749Z,7.45
2023-05-21T14:43:44.576Z,7.40
2023-05-21T14:49:06.452Z,7.82
2023-05-21T14:54:28.314Z,7.60
2023-05-21T14:59:50.144Z,7.20
2023-05-21T15:05:12.036Z,7.25
2023-05-21T15:10:33.879Z,7.15
2023-05-21T15:15:55.879Z,7.25
2023-05-21T15:21:17.787Z,7.03
2023-05-21T15:26:39.611Z,7.63
2023-05-21T15:32:05.294Z,6.68
2023-05-21T15:37:27.126Z,7.05
2023-05-21T15:42:49.085Z,7.28
2023-05-21T15:48:12.730Z,7.13
2023-05-21T15:53:34.628Z,7.68
2023-05-21T15:58:58.829Z,7.10
2023-05-21T16:04:20.751Z,6.93
2023-05-21T16:09:42.807Z,6.63
2023-05-21T16:15:05.688Z,6.80
2023-05-21T16:20:27.530Z,6.53
2023-05-21T16:25:49.462Z,7.10
2023-05-21T16:31:12.878Z,6.90
2023-05-21T16:36:35.648Z,8.27
2023-05-21T16:42:00.007Z,12.10
2023-05-21T16:47:21.941Z,17.20
2023-05-21T16:52:43.920Z,21.67
2023-05-21T16:58:06.669Z,28.20
2023-05-21T17:03:29.779Z,33.80
2023-05-21T17:08:51.692Z,33.42
2023-05-21T17:14:20.283Z,34.58
2023-05-21T17:19:48.773Z,30.53
2023-05-21T17:25:10.987Z,28.15
2023-05-21T17:30:32.911Z,25.80
2023-05-21T17:35:57.384Z,21.05
2023-05-21T17:41:19.372Z,21.17
2023-05-21T17:46:41.306Z,19.73
2023-05-21T17:52:04.773Z,19.58
2023-05-21T17:57:26.715Z,16.70
2023-05-21T18:02:48.584Z,16.88
2023-05-21T18:08:10.813Z,15.45
2023-05-21T18:13:32.729Z,14.15
2023-05-21T18:18:54.563Z,13.80
2023-05-21T18:24:16.556Z,14.43
2023-05-21T18:29:38.505Z,12.57
2023-05-21T18:35:00.762Z,11.43
2023-05-21T18:40:23.311Z,11.32
2023-05-21T18:45:46.554Z,10.63
2023-05-21T18:51:08.475Z,11.13
2023-05-21T18:56:30.581Z,9.88
2023-05-21T19:01:52.817Z,9.60
2023-05-21T19:07:16.155Z,9.60
2023-05-21T19:12:39.721Z,8.95
2023-05-21T19:18:02.049Z,8.70
2023-05-21T19:23:25.194Z,9.38
2023-05-21T19:28:48.116Z,8.23
2023-05-21T19:34:11.042Z,7.47
2023-05-21T19:39:43.050Z,8.60
2023-05-21T19:45:07.149Z,7.50
2023-05-21T19:50:29.233Z,7.20
2023-05-21T19:55:51.360Z,7.43
2023-05-21T20:01:16.656Z,7.20
2023-05-21T20:06:39.137Z,6.35
2023-05-21T20:12:01.069Z,5.68
2023-05-21T20:17:22.896Z,6.55
2023-05-21T20:22:44.818Z,6.22
2023-05-21T20:28:08.495Z,6.65
2023-05-21T20:33:34.597Z,5.95
2023-05-21T20:38:57.441Z,6.20
2023-05-21T20:44:19.410Z,5.82
2023-05-21T20:49:41.266Z,5.90
2023-05-21T20:55:04.682Z,6.13
2023-05-21T21:00:27.097Z,6.68
2023-05-21T21:05:49.088Z,6.50
2023-05-21T21:11:11.187Z,6.30
2023-05-21T21:16:33.111Z,5.53
2023-05-21T21:21:55.060Z,5.50
2023-05-21T21:27:16.926Z,5.55
2023-05-21T21:32:41.992Z,5.45
2023-05-21T21:38:05.194Z,5.05
2023-05-21T21:43:27.149Z,5.30
2023-05-21T21:48:48.978Z,5.93
2023-05-21T21:54:11.487Z,5.18
2023-05-21T21:59:34.136Z,5.60
2023-05-21T22:04:56.074Z,5.30
2023-05-21T22:10:18.647Z,4.72
2023-05-21T22:15:40.659Z,4.60
2023-05-21T22:21:02.824Z,4.57
2023-05-21T22:26:24.746Z,4.80
2023-05-21T22:31:46.671Z,5.25
2023-05-21T22:37:08.548Z,4.50
2023-05-21T22:42:30.714Z,4.57
2023-05-21T22:47:52.602Z,4.75
2023-05-21T22:53:14.488Z,4.95
2023-05-21T22:58:37.012Z,4.80
2023-05-21T23:03:58.785Z,3.78
2023-05-21T23:09:20.739Z,4.45
2023-05-21T23:14:42.548Z,4.45
2023-05-21T23:20:05.243Z,4.57
2023-05-21T23:25:27.057Z,4.38
2023-05-21T23:30:48.976Z,4.18
2023-05-21T23:36:10.824Z,4.07
2023-05-21T23:41:32.692Z,4.00
2023-05-21T23:46:54.584Z,4.70
2023-05-21T23:52:18.553Z,4.07
2023-05-21T23:57:41.292Z,4.45
